Time;durP1;ratioP1;P1;durP2;ratioP2;P2;SDS_P1;SDS_P2;PMS_P1;PMS_P2;Temp;Humidity;BMP_temperature;BMP_pressure;BME280_temperature;BME280_humidity;BME280_pressure;Samples;Min_cycle;Max_cycle;Signal;HPM_P1;HPM_P2
2021/04/11 00:00:21;;;;;;;10.33;6.20;;;10.00;1.00;;;;;;5056338;28;20488;-75
2021/04/11 00:02:48;;;;;;;14.03;6.30;;;;;;;;;;5048666;28;20426;-75
2021/04/11 00:05:19;;;;;;;13.43;6.80;;;9.90;1.00;;;;;;5036006;28;20565;-74
2021/04/11 00:07:47;;;;;;;12.00;7.10;;;;;;;;;;5060778;28;20429;-74
2021/04/11 00:10:26;;;;;;;16.77;6.27;;;9.90;1.00;;;;;;5055868;28;20731;-74
2021/04/11 00:12:53;;;;;;;13.00;6.67;;;;;;;;;;5061608;28;20406;-74
2021/04/11 00:15:19;;;;;;;11.50;5.90;;;9.90;1.00;;;;;;5065726;28;20448;-73
2021/04/11 00:17:45;;;;;;;9.43;5.47;;;9.80;1.00;;;;;;5072419;28;20476;-74
2021/04/11 00:20:12;;;;;;;13.20;6.33;;;9.80;1.00;;;;;;5075834;28;20395;-74
2021/04/11 00:22:47;;;;;;;13.00;5.57;;;9.70;1.00;;;;;;5075773;28;20768;-75
2021/04/11 00:25:17;;;;;;;7.93;5.33;;;9.60;1.00;;;;;;5075677;28;20424;-75
2021/04/11 00:27:59;;;;;;;10.83;5.80;;;9.60;1.00;;;;;;5055430;28;20430;-75
2021/04/11 00:30:26;;;;;;;6.97;4.40;;;9.50;1.00;;;;;;5055764;28;20414;-75
2021/04/11 00:32:55;;;;;;;11.43;4.80;;;9.40;1.00;;;;;;5055498;28;20433;-75
2021/04/11 00:35:22;;;;;;;6.53;4.20;;;9.30;1.00;;;;;;5055199;28;20394;-74
2021/04/11 00:37:47;;;;;;;10.23;4.70;;;9.30;1.00;;;;;;5056102;28;20508;-75
2021/04/11 00:40:24;;;;;;;40.57;5.10;;;9.20;1.00;;;;;;5055217;28;20398;-75
2021/04/11 00:43:11;;;;;;;8.80;4.93;;;9.10;1.00;;;;;;5064800;28;20174;-75
2021/04/11 00:45:56;;;;;;;9.90;4.73;;;9.00;1.00;;;;;;5074761;28;20825;-75
2021/04/11 00:48:24;;;;;;;9.90;5.10;;;8.90;1.00;;;;;;5074695;28;20444;-75
2021/04/11 00:51:18;;;;;;;8.07;4.37;;;8.90;1.00;;;;;;5075597;28;20485;-74
2021/04/11 00:53:44;;;;;;;8.87;4.00;;;;;;;;;;5054631;28;20422;-74
2021/04/11 00:56:13;;;;;;;10.33;4.80;;;8.70;1.00;;;;;;5054857;28;20421;-74
2021/04/11 00:58:39;;;;;;;8.50;4.80;;;;;;;;;;5054693;28;20434;-74
2021/04/11 01:01:08;;;;;;;7.13;4.37;;;8.60;1.00;;;;;;5054638;28;20707;-74
2021/04/11 01:03:37;;;;;;;11.43;5.47;;;8.50;1.00;;;;;;5047679;28;20466;-74
2021/04/11 01:06:09;;;;;;;11.87;4.83;;;8.50;1.00;;;;;;5047623;28;20449;-75
2021/04/11 01:08:47;;;;;;;14.13;5.50;;;;;;;;;;5071113;28;20459;-76
2021/04/11 01:11:20;;;;;;;9.63;4.07;;;;;;;;;;5065155;28;20426;-75
2021/04/11 01:13:54;;;;;;;8.77;4.77;;;8.50;1.00;;;;;;5058075;28;20944;-75
2021/04/11 01:16:21;;;;;;;14.53;5.73;;;;;;;;;;5054370;28;20520;-75
2021/04/11 01:18:53;;;;;;;7.77;5.13;;;8.50;1.00;;;;;;5054653;28;20403;-75
2021/04/11 01:21:41;;;;;;;7.30;4.27;;;8.50;1.00;;;;;;5054914;28;20747;-75
2021/04/11 01:24:28;;;;;;;7.33;4.77;;;;;;;;;;5054716;28;20421;-75
2021/04/11 01:26:54;;;;;;;10.60;5.23;;;8.40;1.00;;;;;;5061165;28;20437;-75
2021/04/11 01:29:22;;;;;;;9.53;4.60;;;8.40;1.00;;;;;;5074528;28;20393;-75
2021/04/11 01:32:11;;;;;;;8.37;4.60;;;8.40;1.00;;;;;;5070725;28;20417;-75
2021/04/11 01:34:39;;;;;;;10.13;4.80;;;8.40;1.00;;;;;;5053969;28;20390;-75
2021/04/11 01:37:06;;;;;;;29.03;7.23;;;8.40;1.00;;;;;;5050567;28;20541;-75
2021/04/11 01:39:35;;;;;;;13.93;4.10;;;;;;;;;;5054229;28;20402;-75
2021/04/11 01:42:06;;;;;;;9.13;4.90;;;8.30;1.00;;;;;;5057468;28;20822;-75
2021/04/11 01:44:45;;;;;;;16.53;5.20;;;8.30;1.00;;;;;;5066282;28;20422;-75
2021/04/11 01:47:17;;;;;;;7.67;4.17;;;8.40;1.00;;;;;;5066682;28;20414;-75
2021/04/11 01:49:45;;;;;;;7.50;4.43;;;8.40;1.00;;;;;;5053967;28;20441;-75
2021/04/11 01:52:23;;;;;;;6.93;4.60;;;8.40;1.00;;;;;;5054102;28;20476;-76
2021/04/11 01:54:50;;;;;;;14.10;5.33;;;;;;;;;;5053412;28;20395;-75
2021/04/11 01:57:27;;;;;;;10.70;5.70;;;8.40;1.00;;;;;;5053693;28;20968;-75
2021/04/11 02:00:22;;;;;;;12.33;5.00;;;8.40;1.00;;;;;;5054097;28;20398;-75
2021/04/11 02:02:57;;;;;;;14.13;4.43;;;8.50;1.00;;;;;;5062614;28;20410;-75
2021/04/11 02:05:29;;;;;;;7.60;4.63;;;8.50;1.00;;;;;;5046888;28;20506;-75
2021/04/11 02:07:59;;;;;;;8.90;5.43;;;;;;;;;;5057026;28;20448;-75
2021/04/11 02:10:36;;;;;;;10.97;5.43;;;;;;;;;;5071170;28;20382;-75
2021/04/11 02:13:06;;;;;;;7.60;4.83;;;;;;;;;;5056567;28;20801;-75
2021/04/11 02:15:38;;;;;;;8.97;5.40;;;8.50;1.00;;;;;;5053941;28;20426;-75
2021/04/11 02:18:04;;;;;;;5.17;4.33;;;;;;;;;;5066364;28;20449;-75
2021/04/11 02:20:32;;;;;;;9.47;4.50;;;8.60;1.00;;;;;;5071639;28;20470;-75
2021/04/11 02:22:58;;;;;;;9.13;4.87;;;;;;;;;;5072894;28;20739;-74
2021/04/11 02:25:29;;;;;;;9.60;5.50;;;8.60;1.00;;;;;;5072258;28;20882;-74
2021/04/11 02:28:00;;;;;;;8.97;4.70;;;8.70;1.00;;;;;;5063484;28;20444;-74
2021/04/11 02:30:29;;;;;;;8.20;4.47;;;;;;;;;;5073134;28;20773;-74
2021/04/11 02:32:57;;;;;;;6.60;4.73;;;8.70;1.00;;;;;;5072275;28;20830;-74
2021/04/11 02:35:27;;;;;;;11.27;5.30;;;8.70;1.00;;;;;;5073529;28;20747;-74
2021/04/11 02:38:00;;;;;;;8.13;4.83;;;8.80;1.00;;;;;;5065115;28;21082;-74
2021/04/11 02:40:37;;;;;;;9.70;5.17;;;8.80;1.00;;;;;;5071292;28;21131;-74
2021/04/11 02:43:06;;;;;;;10.83;5.27;;;8.80;1.00;;;;;;5053332;28;20433;-74
2021/04/11 02:45:35;;;;;;;7.47;4.70;;;8.80;1.00;;;;;;5053386;28;20390;-74
2021/04/11 02:48:01;;;;;;;8.10;5.10;;;;;;;;;;5053027;28;20463;-74
2021/04/11 02:50:30;;;;;;;11.90;5.27;;;8.80;1.00;;;;;;5053068;28;20402;-74
2021/04/11 02:53:05;;;;;;;8.03;4.70;;;8.80;1.00;;;;;;5053469;28;20421;-74
2021/04/11 02:55:35;;;;;;;66.63;11.10;;;8.90;1.00;;;;;;5050859;28;20517;-74
2021/04/11 02:58:01;;;;;;;7.30;5.17;;;;;;;;;;5055859;28;20453;-74
2021/04/11 03:00:30;;;;;;;9.67;4.60;;;8.80;1.00;;;;;;5052784;28;20410;-74
2021/04/11 03:02:56;;;;;;;8.73;4.97;;;;;;;;;;5064283;28;20790;-74
2021/04/11 03:05:24;;;;;;;9.07;4.80;;;8.80;1.00;;;;;;5061538;28;20423;-74
2021/04/11 03:07:53;;;;;;;9.23;4.40;;;8.80;1.00;;;;;;5053041;28;20441;-75
2021/04/11 03:10:30;;;;;;;7.13;4.53;;;8.80;1.00;;;;;;5074228;28;20448;-75
2021/04/11 03:12:57;;;;;;;9.53;5.90;;;8.90;1.00;;;;;;5060531;28;20930;-75
2021/04/11 03:15:24;;;;;;;6.93;4.80;;;8.80;1.00;;;;;;5076670;28;20829;-75
2021/04/11 03:17:53;;;;;;;7.83;4.40;;;8.80;1.00;;;;;;5074455;28;20476;-75
2021/04/11 03:20:33;;;;;;;8.43;4.63;;;8.80;1.00;;;;;;5075638;28;20421;-75
2021/04/11 03:23:02;;;;;;;9.17;4.77;;;;;;;;;;5064320;28;20417;-74
2021/04/11 03:25:28;;;;;;;10.67;5.43;;;8.80;1.00;;;;;;5056720;28;20492;-74
2021/04/11 03:28:21;;;;;;;7.10;4.30;;;8.80;1.00;;;;;;5067870;28;20786;-74
2021/04/11 03:31:06;;;;;;;9.30;5.07;;;;;;;;;;5076604;28;20793;-74
2021/04/11 03:33:36;;;;;;;5.87;4.10;;;;;;;;;;5059810;28;20405;-74
2021/04/11 03:36:02;;;;;;;7.53;4.47;;;8.80;1.00;;;;;;5056556;28;20793;-74
2021/04/11 03:38:32;;;;;;;6.57;5.00;;;8.90;1.00;;;;;;5056694;28;20450;-74
2021/04/11 03:41:00;;;;;;;10.97;5.57;;;8.90;1.00;;;;;;5042567;28;20774;-74
2021/04/11 03:43:36;;;;;;;13.23;5.30;;;8.90;1.00;;;;;;5052414;28;20445;-74
2021/04/11 03:46:06;;;;;;;6.80;4.73;;;;;;;;;;5043506;28;20410;-74
2021/04/11 03:48:44;;;;;;;10.90;5.10;;;8.90;1.00;;;;;;5072854;28;20762;-74
2021/04/11 03:51:23;;;;;;;10.47;5.40;;;8.90;1.00;;;;;;5064256;28;20435;-74
2021/04/11 03:53:56;;;;;;;9.50;5.40;;;8.90;1.00;;;;;;5056695;28;20449;-74
2021/04/11 03:56:26;;;;;;;14.00;5.63;;;8.90;1.00;;;;;;5056687;28;20449;-74
2021/04/11 03:58:56;;;;;;;8.73;4.93;;;;;;;;;;5074973;28;20422;-74
2021/04/11 04:01:27;;;;;;;9.90;4.97;;;8.90;1.00;;;;;;5063127;28;20407;-74
2021/04/11 04:04:04;;;;;;;7.87;4.33;;;8.90;1.00;;;;;;5054773;28;20440;-74
2021/04/11 04:06:36;;;;;;;15.80;5.70;;;;;;;;;;5057566;28;20508;-74
2021/04/11 04:09:05;;;;;;;10.17;5.03;;;;;;;;;;5036113;28;20980;-75
2021/04/11 04:11:37;;;;;;;14.60;5.00;;;;;;;;;;5044617;28;20413;-75
2021/04/11 04:14:17;;;;;;;9.17;5.17;;;;;;;;;;5036077;28;20383;-75
2021/04/11 04:16:43;;;;;;;8.67;5.20;;;;;;;;;;5036866;28;20479;-75
2021/04/11 04:19:30;;;;;;;8.80;5.10;;;9.10;1.00;;;;;;5073818;28;20409;-75
2021/04/11 04:22:20;;;;;;;8.33;4.97;;;9.10;1.00;;;;;;5075289;28;20456;-75
2021/04/11 04:24:48;;;;;;;10.03;5.60;;;9.20;1.00;;;;;;5076151;28;20423;-74
2021/04/11 04:27:39;;;;;;;17.47;6.40;;;9.30;1.00;;;;;;5072864;28;21065;-74
2021/04/11 04:30:05;;;;;;;8.27;4.90;;;;;;;;;;5075492;28;20409;-74
2021/04/11 04:32:36;;;;;;;10.17;6.03;;;;;;;;;;5058964;28;20421;-74
2021/04/11 04:35:17;;;;;;;11.57;5.83;;;;;;;;;;5055529;28;20390;-74
2021/04/11 04:37:46;;;;;;;10.70;5.57;;;;;;;;;;5064822;28;20463;-74
2021/04/11 04:40:12;;;;;;;10.80;5.60;;;;;;;;;;5063832;28;20446;-74
2021/04/11 04:42:50;;;;;;;10.13;4.93;;;9.40;1.00;;;;;;5063359;28;20433;-76
2021/04/11 04:45:23;;;;;;;8.37;5.10;;;9.40;1.00;;;;;;5042686;28;20452;-74
2021/04/11 04:47:59;;;;;;;9.10;5.20;;;9.40;1.00;;;;;;5055084;28;20414;-74
2021/04/11 04:50:31;;;;;;;8.57;5.73;;;;;;;;;;5055100;28;20402;-74
2021/04/11 04:53:09;;;;;;;10.43;5.30;;;;;;;;;;5065183;28;20948;-74
2021/04/11 04:55:38;;;;;;;8.50;5.10;;;9.60;1.00;;;;;;5071356;28;20629;-75
2021/04/11 04:58:17;;;;;;;14.97;4.83;;;9.70;1.00;;;;;;5059497;28;20497;-75
2021/04/11 05:00:52;;;;;;;9.40;5.77;;;;;;;;;;5054659;28;20397;-75
2021/04/11 05:03:32;;;;;;;7.53;4.33;;;9.80;1.00;;;;;;5067693;28;20404;-75
2021/04/11 05:05:59;;;;;;;13.17;4.60;;;;;;;;;;5074785;28;20397;-75
2021/04/11 05:08:26;;;;;;;9.30;4.63;;;;;;;;;;5045969;28;20435;-74
2021/04/11 05:11:12;;;;;;;6.53;4.40;;;;;;;;;;5042043;28;20441;-74
2021/04/11 05:13:45;;;;;;;7.27;4.70;;;10.10;1.00;;;;;;5054462;28;20428;-74
2021/04/11 05:16:19;;;;;;;9.70;4.57;;;10.20;1.00;;;;;;5054833;28;20407;-74
2021/04/11 05:18:54;;;;;;;5.20;3.57;;;10.30;1.00;;;;;;5072407;28;20942;-74
2021/04/11 05:21:26;;;;;;;9.17;4.37;;;;;;;;;;5074054;28;20412;-74
2021/04/11 05:24:04;;;;;;;4.53;3.40;;;10.50;1.00;;;;;;5054470;28;20402;-74
2021/04/11 05:26:51;;;;;;;6.90;3.90;;;;;;;;;;5060811;28;20445;-74
2021/04/11 05:29:38;;;;;;;7.27;3.80;;;10.60;1.00;;;;;;5033875;28;20864;-74
2021/04/11 05:32:04;;;;;;;7.80;3.90;;;;;;;;;;5041611;28;20413;-74
2021/04/11 05:34:30;;;;;;;5.87;3.33;;;;;;;;;;5053651;28;20390;-74
2021/04/11 05:37:05;;;;;;;4.73;3.40;;;;;;;;;;5057579;28;20453;-74
2021/04/11 05:39:37;;;;;;;3.87;3.47;;;10.90;1.00;;;;;;5074104;28;20407;-74
2021/04/11 05:42:27;;;;;;;4.53;2.97;;;11.00;1.00;;;;;;5062922;28;20827;-74
2021/04/11 05:45:00;;;;;;;3.97;2.97;;;11.10;1.00;;;;;;5058832;28;20406;-74
2021/04/11 05:47:26;;;;;;;5.37;2.80;;;;;;;;;;5060479;28;20424;-74
2021/04/11 05:50:20;;;;;;;4.57;2.50;;;11.20;1.00;;;;;;5073051;28;20417;-74
2021/04/11 05:53:09;;;;;;;5.03;2.70;;;11.40;1.00;;;;;;5023813;28;20439;-74
2021/04/11 05:55:39;;;;;;;3.77;2.53;;;11.40;1.00;;;;;;5029900;28;20427;-75
2021/04/11 05:58:13;;;;;;;5.03;2.50;;;11.50;1.00;;;;;;5029428;28;20472;-75
2021/04/11 06:00:52;;;;;;;2.80;2.47;;;11.60;1.00;;;;;;5031240;28;20486;-75
2021/04/11 06:03:24;;;;;;;4.60;2.93;;;11.80;1.00;;;;;;5016431;28;20434;-75
2021/04/11 06:06:05;;;;;;;7.30;2.97;;;11.90;1.00;;;;;;5011561;28;20869;-75
2021/04/11 06:09:01;;;;;;;8.50;3.43;;;12.00;1.00;;;;;;5026416;28;20457;-75
2021/04/11 06:11:35;;;;;;;6.80;2.23;;;12.10;1.00;;;;;;5017053;28;20813;-74
2021/04/11 06:14:19;;;;;;;5.73;2.80;;;12.20;1.00;;;;;;5031385;28;20826;-74
2021/04/11 06:16:50;;;;;;;5.03;2.73;;;12.30;1.00;;;;;;5022310;28;20477;-74
2021/04/11 06:19:16;;;;;;;2.67;2.20;;;12.30;1.00;;;;;;5012998;28;20428;-74
2021/04/11 06:21:53;;;;;;;9.97;2.50;;;12.40;1.00;;;;;;5018061;28;20968;-78
2021/04/11 06:24:50;;;;;;;7.40;2.87;;;12.50;1.00;;;;;;5018219;28;20439;-76
2021/04/11 06:28:11;;;;;;;8.53;2.30;;;12.60;1.00;;;;;;5015614;28;20451;-77
2021/04/11 06:31:03;;;;;;;5.57;2.50;;;12.60;1.00;;;;;;5030301;28;20418;-77
2021/04/11 06:33:40;;;;;;;5.20;2.70;;;12.70;1.00;;;;;;5041322;28;20414;-80
2021/04/11 06:36:29;;;;;;;3.47;2.47;;;12.80;1.00;;;;;;5050014;28;20414;-80
2021/04/11 06:39:06;;;;;;;4.80;2.10;;;12.90;1.00;;;;;;5047684;28;20460;-74
2021/04/11 06:41:46;;;;;;;3.60;2.73;;;12.80;1.00;;;;;;5058175;28;20418;-75
2021/04/11 06:44:37;;;;;;;3.30;2.27;;;12.90;1.00;;;;;;5046013;28;20419;-74
2021/04/11 06:47:48;;;;;;;5.50;2.60;;;12.90;1.00;;;;;;5048949;28;20437;-74
2021/04/11 06:50:40;;;;;;;4.50;2.27;;;12.80;1.00;;;;;;5016367;28;20450;-74
2021/04/11 06:53:31;;;;;;;3.47;2.17;;;12.80;1.00;;;;;;5030916;28;20490;-74
2021/04/11 06:56:42;;;;;;;3.30;2.20;;;12.80;1.00;;;;;;5023390;28;20424;-74
2021/04/11 06:59:29;;;;;;;2.27;2.00;;;12.80;1.00;;;;;;5011043;28;20400;-73
2021/04/11 07:02:03;;;;;;;9.03;2.67;;;12.90;1.00;;;;;;5016936;28;20522;-75
2021/04/11 07:05:06;;;;;;;3.57;2.30;;;13.00;1.00;;;;;;5012637;28;20511;-75
2021/04/11 07:07:49;;;;;;;3.93;2.00;;;13.10;1.00;;;;;;5023858;28;20535;-74
2021/04/11 07:10:38;;;;;;;7.77;2.83;;;13.20;1.00;;;;;;5007495;28;20444;-74
2021/04/11 07:13:16;;;;;;;2.40;1.90;;;;;;;;;;5011151;28;20431;-74
2021/04/11 07:15:54;;;;;;;3.57;2.50;;;13.40;1.00;;;;;;5030698;28;20395;-73
2021/04/11 07:18:25;;;;;;;3.90;2.47;;;13.60;1.00;;;;;;5019685;28;20587;-73
2021/04/11 07:21:21;;;;;;;5.87;2.53;;;13.80;1.00;;;;;;5030653;28;20474;-74
2021/04/11 07:24:15;;;;;;;2.83;2.07;;;13.90;1.00;;;;;;5023160;28;20416;-73
2021/04/11 07:27:00;;;;;;;8.97;2.90;;;14.00;1.00;;;;;;5017588;28;20450;-75
2021/04/11 07:29:34;;;;;;;5.57;2.50;;;14.20;1.00;;;;;;5052054;28;20502;-74
2021/04/11 07:32:25;;;;;;;5.07;2.47;;;14.40;1.00;;;;;;5051531;28;20408;-75
2021/04/11 07:35:07;;;;;;;4.30;2.20;;;14.50;1.00;;;;;;5051058;28;20417;-74
2021/04/11 07:38:04;;;;;;;4.47;2.23;;;14.60;1.00;;;;;;5072435;28;20444;-77
2021/04/11 07:41:07;;;;;;;3.90;2.50;;;14.70;1.00;;;;;;5053643;28;20457;-73
2021/04/11 07:44:04;;;;;;;4.07;2.40;;;14.80;1.00;;;;;;5042503;28;20515;-74
2021/04/11 07:47:01;;;;;;;6.57;3.13;;;;;;;;;;5052713;28;20382;-74
2021/04/11 07:49:53;;;;;;;8.83;2.07;;;14.80;1.00;;;;;;5021503;28;20502;-76
2021/04/11 07:52:23;;;;;;;4.27;2.30;;;;;;;;;;5034842;28;20418;-74
2021/04/11 07:55:07;;;;;;;12.37;2.87;;;14.80;1.00;;;;;;5029966;28;20427;-74
2021/04/11 07:57:41;;;;;;;8.40;2.77;;;;;;;;;;5032242;28;20421;-73
2021/04/11 08:00:16;;;;;;;4.40;2.10;;;;;;;;;;5032212;28;20447;-74
2021/04/11 08:02:57;;;;;;;6.90;2.87;;;;;;;;;;5029098;28;20411;-74
2021/04/11 08:05:26;;;;;;;7.23;2.60;;;;;;;;;;5013961;28;20483;-74
2021/04/11 08:08:23;;;;;;;4.97;2.47;;;15.30;1.00;;;;;;5026930;28;20390;-74
2021/04/11 08:10:51;;;;;;;5.60;2.27;;;;;;;;;;5029678;28;20472;-75
2021/04/11 08:13:29;;;;;;;9.60;2.43;;;;;;;;;;5023565;28;20405;-75
2021/04/11 08:16:29;;;;;;;6.43;2.67;;;15.20;1.00;;;;;;5033597;28;20395;-75
2021/04/11 08:19:06;;;;;;;4.90;2.10;;;;;;;;;;5004698;28;20812;-75
2021/04/11 08:21:47;;;;;;;3.23;2.10;;;;;;;;;;5013378;28;20400;-75
2021/04/11 08:24:16;;;;;;;3.63;1.90;;;;;;;;;;5013346;28;20955;-75
2021/04/11 08:26:59;;;;;;;9.27;2.53;;;;;;;;;;5032399;28;20796;-73
2021/04/11 08:29:28;;;;;;;6.73;2.73;;;;;;;;;;5052608;28;20715;-74
2021/04/11 08:32:48;;;;;;;5.00;2.13;;;15.70;1.00;;;;;;5055545;28;20388;-74
2021/04/11 08:35:59;;;;;;;4.40;1.70;;;16.00;1.00;;;;;;5035403;28;20758;-77
2021/04/11 08:39:16;;;;;;;6.90;2.20;;;16.10;1.00;;;;;;5044009;28;20461;-73
2021/04/11 08:41:42;;;;;;;3.57;1.80;;;;;;;;;;5039818;28;20405;-74
2021/04/11 08:44:24;;;;;;;7.90;2.57;;;;;;;;;;5052827;28;20501;-74
2021/04/11 08:47:44;;;;;;;4.63;1.80;;;15.90;1.00;;;;;;5051990;28;20476;-74
2021/04/11 08:50:13;;;;;;;4.53;1.60;;;;;;;;;;4935230;29;20909;-74
2021/04/11 08:52:39;;;;;;;4.27;2.00;;;;;;;;;;4950624;29;20434;-74
2021/04/11 08:55:08;;;;;;;5.37;2.13;;;;;;;;;;4936559;29;20398;-73
2021/04/11 08:57:34;;;;;;;3.77;1.97;;;;;;;;;;4934748;29;20522;-73
2021/04/11 09:00:00;;;;;;;6.57;2.00;;;;;;;;;;4935235;29;20441;-73
2021/04/11 09:02:28;;;;;;;3.30;1.80;;;15.90;1.00;;;;;;4935174;29;20399;-73
2021/04/11 09:05:32;;;;;;;14.10;2.47;;;15.90;1.00;;;;;;4934434;29;20398;-73
2021/04/11 09:08:16;;;;;;;5.17;2.40;;;;;;;;;;4934878;29;20406;-73
2021/04/11 09:11:02;;;;;;;6.60;2.20;;;15.80;1.00;;;;;;4953506;29;20403;-74
2021/04/11 09:13:58;;;;;;;15.93;2.97;;;15.80;1.00;;;;;;4931730;29;20439;-74
2021/04/11 09:16:27;;;;;;;3.10;1.83;;;;;;;;;;4934628;29;20411;-74
2021/04/11 09:18:56;;;;;;;3.73;1.63;;;;;;;;;;4934784;29;20919;-74
2021/04/11 09:21:28;;;;;;;6.90;2.87;;;;;;;;;;4933898;29;20495;-74
2021/04/11 09:23:57;;;;;;;4.83;2.10;;;;;;;;;;4934313;29;20923;-74
2021/04/11 09:26:36;;;;;;;4.00;1.90;;;;;;;;;;5000072;28;20424;-73
2021/04/11 09:29:31;;;;;;;3.47;1.93;;;16.60;1.00;;;;;;5072446;28;20424;-73
2021/04/11 09:32:03;;;;;;;8.73;2.53;;;;;;;;;;5062004;28;20434;-73
2021/04/11 09:34:29;;;;;;;1.90;1.60;;;;;;;;;;5054193;28;20395;-73
2021/04/11 09:37:17;;;;;;;7.30;2.50;;;17.20;1.00;;;;;;5055985;28;20766;-73
2021/04/11 09:39:56;;;;;;;9.27;2.50;;;17.40;1.00;;;;;;5068709;28;20388;-73
2021/04/11 09:42:41;;;;;;;6.90;1.87;;;;;;;;;;5053898;28;20407;-73
2021/04/11 09:45:31;;;;;;;3.80;1.53;;;17.60;1.00;;;;;;5053948;28;20426;-74
2021/04/11 09:48:21;;;;;;;19.67;3.03;;;17.50;1.00;;;;;;5065813;28;20450;-73
2021/04/11 09:51:29;;;;;;;7.60;1.97;;;17.70;1.00;;;;;;5061772;28;20468;-73
2021/04/11 09:54:17;;;;;;;4.03;1.90;;;17.70;1.00;;;;;;5011836;28;20401;-74
2021/04/11 09:57:14;;;;;;;2.83;1.50;;;17.60;1.00;;;;;;5012207;28;20967;-73
2021/04/11 09:59:46;;;;;;;4.90;1.60;;;;;;;;;;5011802;28;20383;-73
2021/04/11 10:02:45;;;;;;;4.27;2.10;;;17.50;1.00;;;;;;5011166;28;20435;-73
2021/04/11 10:05:23;;;;;;;5.13;1.90;;;;;;;;;;4994951;28;20415;-74
2021/04/11 10:08:12;;;;;;;2.60;2.20;;;17.40;1.00;;;;;;5011327;28;20826;-74
2021/04/11 10:10:41;;;;;;;3.40;1.83;;;;;;;;;;5011267;28;20396;-73
2021/04/11 10:13:22;;;;;;;5.50;2.00;;;;;;;;;;5009922;28;20974;-73
2021/04/11 10:15:48;;;;;;;2.30;1.67;;;;;;;;;;5009961;28;20431;-73
2021/04/11 10:18:24;;;;;;;3.23;1.37;;;17.20;1.00;;;;;;5011191;28;20431;-73
2021/04/11 10:21:08;;;;;;;4.67;2.40;;;;;;;;;;5011493;28;20816;-73
2021/04/11 10:23:49;;;;;;;5.03;2.10;;;;;;;;;;5011037;28;20920;-74
2021/04/11 10:26:26;;;;;;;4.67;1.77;;;17.10;1.00;;;;;;5011142;28;20436;-73
2021/04/11 10:28:58;;;;;;;2.70;1.67;;;17.10;1.00;;;;;;5011132;28;20376;-73
2021/04/11 10:31:56;;;;;;;2.70;1.60;;;17.10;1.00;;;;;;5030592;28;20423;-73
2021/04/11 10:34:31;;;;;;;3.90;1.97;;;;;;;;;;5031669;28;20411;-73
2021/04/11 10:37:15;;;;;;;3.80;1.80;;;;;;;;;;5032944;28;20905;-73
2021/04/11 10:39:44;;;;;;;1.80;1.53;;;;;;;;;;5033061;28;20389;-74
2021/04/11 10:42:31;;;;;;;6.90;2.87;;;17.40;1.00;;;;;;5033162;28;20391;-73
2021/04/11 10:45:06;;;;;;;6.40;2.60;;;;;;;;;;5032779;28;20367;-73
2021/04/11 10:47:52;;;;;;;7.63;2.33;;;;;;;;;;5031584;28;20378;-74
2021/04/11 10:50:32;;;;;;;4.13;2.47;;;17.30;1.00;;;;;;5032526;28;20370;-73
2021/04/11 10:52:58;;;;;;;3.70;2.00;;;;;;;;;;5050637;28;20918;-73
2021/04/11 10:55:24;;;;;;;5.47;2.10;;;;;;;;;;5052770;28;20448;-73
2021/04/11 10:57:56;;;;;;;4.10;1.70;;;;;;;;;;5052984;28;20420;-73
2021/04/11 11:00:44;;;;;;;3.63;1.40;;;16.50;1.00;;;;;;5051312;28;20385;-73
2021/04/11 11:03:10;;;;;;;1.77;1.43;;;;;;;;;;5052639;28;20411;-73
2021/04/11 11:05:51;;;;;;;2.83;1.70;;;;;;;;;;5052690;28;20377;-73
2021/04/11 11:08:26;;;;;;;4.43;1.70;;;;;;;;;;5043428;28;20425;-73
2021/04/11 11:10:55;;;;;;;3.13;1.70;;;;;;;;;;5052538;28;20369;-73
2021/04/11 11:13:27;;;;;;;10.17;1.90;;;;;;;;;;5046906;28;20415;-73
2021/04/11 11:16:10;;;;;;;3.07;1.37;;;16.90;1.00;;;;;;5043689;28;20453;-73
2021/04/11 11:18:39;;;;;;;3.47;1.53;;;;;;;;;;5052402;28;20420;-73
2021/04/11 11:21:27;;;;;;;6.80;2.00;;;16.90;1.00;;;;;;5052321;28;20744;-73
2021/04/11 11:23:56;;;;;;;1.97;1.30;;;;;;;;;;5030105;28;20397;-73
2021/04/11 11:26:34;;;;;;;4.60;1.87;;;;;;;;;;5014436;28;20757;-73
2021/04/11 11:29:09;;;;;;;11.93;2.20;;;;;;;;;;5033303;28;20511;-73
2021/04/11 11:31:46;;;;;;;5.30;1.97;;;16.50;1.00;;;;;;5027705;28;20398;-73
2021/04/11 11:34:40;;;;;;;3.40;1.90;;;16.20;1.00;;;;;;5014500;28;20923;-73
2021/04/11 11:37:08;;;;;;;6.63;2.20;;;;;;;;;;5015838;28;20460;-73
2021/04/11 11:40:01;;;;;;;6.10;1.93;;;16.00;1.00;;;;;;5027348;28;20516;-73
2021/04/11 11:42:27;;;;;;;11.50;3.10;;;;;;;;;;5000027;28;20430;-72
2021/04/11 11:44:56;;;;;;;10.30;2.60;;;;;;;;;;5014356;28;20396;-72
2021/04/11 11:48:19;;;;;;;7.50;2.67;;;15.60;1.00;;;;;;5031712;28;20461;-79
2021/04/11 11:50:59;;;;;;;6.77;2.40;;;;;;;;;;4940844;29;20401;-79
2021/04/11 11:54:04;;;;;;;10.27;2.60;;;15.50;1.00;;;;;;4936620;29;20781;-72
2021/04/11 11:56:42;;;;;;;6.77;2.80;;;15.30;1.00;;;;;;4952409;29;20446;-73
2021/04/11 11:59:34;;;;;;;10.73;2.97;;;15.20;1.00;;;;;;4936727;29;20398;-73
2021/04/11 12:02:28;;;;;;;9.30;3.30;;;15.10;1.00;;;;;;4976343;28;20432;-73
2021/04/11 12:05:07;;;;;;;14.70;3.00;;;;;;;;;;4955218;29;20454;-73
2021/04/11 12:07:47;;;;;;;6.97;2.80;;;14.80;1.00;;;;;;4950185;29;20971;-74
2021/04/11 12:10:28;;;;;;;10.23;2.73;;;;;;;;;;4940454;29;20517;-73
2021/04/11 12:13:00;;;;;;;3.90;2.63;;;14.50;1.00;;;;;;4947256;29;20441;-73
2021/04/11 12:15:56;;;;;;;6.93;2.47;;;14.50;1.00;;;;;;4929343;29;20858;-73
2021/04/11 12:18:27;;;;;;;5.27;2.60;;;;;;;;;;4917520;29;20524;-72
2021/04/11 12:21:10;;;;;;;4.63;2.30;;;;;;;;;;4954852;28;20435;-72
2021/04/11 12:23:46;;;;;;;5.80;2.20;;;;;;;;;;5032682;28;20423;-72
2021/04/11 12:26:19;;;;;;;3.13;2.23;;;14.20;1.00;;;;;;5033310;28;20430;-73
2021/04/11 12:28:46;;;;;;;5.47;2.00;;;;;;;;;;5033441;28;20426;-73
2021/04/11 12:31:36;;;;;;;6.20;2.80;;;14.10;1.00;;;;;;5033440;28;20427;-73
2021/04/11 12:34:18;;;;;;;3.60;2.40;;;14.00;1.00;;;;;;5033445;28;20395;-73
2021/04/11 12:36:53;;;;;;;6.33;2.67;;;;;;;;;;5033957;28;20422;-73
2021/04/11 12:39:27;;;;;;;3.63;2.17;;;13.90;1.00;;;;;;5033283;28;20414;-73
2021/04/11 12:41:56;;;;;;;6.90;2.27;;;;;;;;;;5034332;28;20415;-73
2021/04/11 12:44:56;;;;;;;3.93;1.90;;;13.70;1.00;;;;;;5071358;28;20499;-72
2021/04/11 12:47:26;;;;;;;6.53;1.90;;;;;;;;;;5051870;28;20438;-73
2021/04/11 12:49:58;;;;;;;2.37;1.37;;;;;;;;;;5047882;28;20462;-73
2021/04/11 12:52:24;;;;;;;2.60;1.47;;;;;;;;;;5047331;28;20462;-72
2021/04/11 12:54:54;;;;;;;4.13;1.57;;;;;;;;;;5027179;28;20416;-72
2021/04/11 12:57:38;;;;;;;4.17;1.67;;;12.60;1.00;;;;;;5013073;28;20418;-73
2021/04/11 13:00:12;;;;;;;8.50;1.00;;;12.40;1.00;;;;;;5027802;28;20472;-73
2021/04/11 13:02:58;;;;;;;2.47;1.40;;;;;;;;;;5038052;28;20414;-73
2021/04/11 13:05:51;;;;;;;1.97;1.00;;;12.30;1.00;;;;;;5052477;28;20421;-73
2021/04/11 13:08:45;;;;;;;2.13;1.17;;;12.30;1.00;;;;;;4996408;28;20459;-72
2021/04/11 13:11:34;;;;;;;2.40;1.00;;;12.30;1.00;;;;;;5013185;28;20512;-72
2021/04/11 13:14:23;;;;;;;2.80;0.80;;;12.00;1.00;;;;;;5043927;28;20500;-73
2021/04/11 13:16:57;;;;;;;7.13;1.27;;;;;;;;;;5032824;28;20822;-72
2021/04/11 13:19:31;;;;;;;5.93;1.10;;;11.70;1.00;;;;;;5034870;28;20435;-73
2021/04/11 13:22:16;;;;;;;1.27;0.70;;;;;;;;;;5038208;28;20441;-73
2021/04/11 13:24:42;;;;;;;7.00;1.40;;;;;;;;;;5043417;28;20437;-73
2021/04/11 13:27:27;;;;;;;3.37;0.90;;;11.50;1.00;;;;;;5054103;28;20437;-73
2021/04/11 13:30:13;;;;;;;1.60;0.70;;;;;;;;;;5045488;28;20481;-73
2021/04/11 13:32:58;;;;;;;4.80;1.00;;;11.30;1.00;;;;;;5067520;28;20454;-73
2021/04/11 13:35:30;;;;;;;2.70;0.80;;;;;;;;;;5060351;28;20422;-73
2021/04/11 13:37:56;;;;;;;2.60;0.90;;;;;;;;;;5066326;28;20495;-73
2021/04/11 13:40:26;;;;;;;2.80;0.77;;;11.40;1.00;;;;;;5048189;28;20415;-74
2021/04/11 13:42:58;;;;;;;1.17;0.60;;;;;;;;;;5058310;28;20417;-73
2021/04/11 13:45:49;;;;;;;1.50;0.60;;;11.30;1.00;;;;;;5063101;28;20440;-74
2021/04/11 13:48:17;;;;;;;2.13;0.70;;;;;;;;;;5030495;28;20477;-74
2021/04/11 13:51:30;;;;;;;2.57;0.87;;;11.40;1.00;;;;;;5019547;28;20440;-74
2021/04/11 13:54:17;;;;;;;5.37;1.00;;;11.40;1.00;;;;;;4972713;28;20447;-75
2021/04/11 13:56:52;;;;;;;2.83;0.60;;;;;;;;;;4971981;28;20423;-74
2021/04/11 13:59:32;;;;;;;4.27;1.00;;;11.60;1.00;;;;;;4972995;28;20457;-74
2021/04/11 14:02:09;;;;;;;7.90;1.47;;;11.50;1.00;;;;;;4972224;28;20464;-74
2021/04/11 14:04:41;;;;;;;4.13;1.00;;;;;;;;;;4972278;28;20413;-75
2021/04/11 14:07:25;;;;;;;1.13;0.80;;;11.50;1.00;;;;;;4969391;28;20429;-75
2021/04/11 14:10:19;;;;;;;1.77;0.97;;;11.40;1.00;;;;;;4964133;28;20433;-77
2021/04/11 14:12:53;;;;;;;11.83;1.60;;;11.20;1.00;;;;;;4915282;29;20428;-76
2021/04/11 14:15:48;;;;;;;2.93;0.73;;;11.00;1.00;;;;;;4915627;29;20447;-79
2021/04/11 14:18:46;;;;;;;5.23;1.60;;;10.80;1.00;;;;;;4911913;29;20555;-80
2021/04/11 14:24:38;;;;;;;1.93;0.80;;;10.60;1.00;;;;;;4919147;29;20439;-84
2021/04/11 14:27:20;;;;;;;1.27;0.60;;;10.50;1.00;;;;;;4942748;28;20461;-72
2021/04/11 14:33:24;;;;;;;0.80;0.80;;;10.50;1.00;;;;;;4990590;28;20928;-74
2021/04/11 14:35:59;;;;;;;1.33;0.80;;;;;;;;;;4978711;28;20431;-74
2021/04/11 14:38:26;;;;;;;3.07;0.87;;;;;;;;;;4991189;28;20472;-74
2021/04/11 14:40:59;;;;;;;1.13;0.90;;;;;;;;;;4975108;28;20776;-74
2021/04/11 14:43:35;;;;;;;3.87;1.03;;;10.70;1.00;;;;;;4975785;28;20791;-74